Time;durP1;ratioP1;P1;durP2;ratioP2;P2;SDS_P1;SDS_P2;PMS_P1;PMS_P2;Temp;Humidity;BMP_temperature;BMP_pressure;BME280_temperature;BME280_humidity;BME280_pressure;Samples;Min_cycle;Max_cycle;Signal;HPM_P1;HPM_P2
2022/01/27 00:04:08;;;;;;;6.07;4.40;;;;;;;20.36;46.83;101209.28;20425537;28;98280;-67
2022/01/27 00:14:11;;;;;;;5.03;4.35;;;;;;;20.33;46.96;101212.09;20427805;28;101058;-68
2022/01/27 00:46:10;;;;;;;5.38;4.30;;;;;;;20.26;46.30;101208.13;20426484;28;98671;-68
2022/01/27 01:07:09;;;;;;;5.13;4.18;;;;;;;20.18;46.52;101194.59;20454662;28;101021;-67
2022/01/27 01:39:49;;;;;;;4.65;3.80;;;;;;;20.12;46.46;101194.03;20448442;28;101819;-66
2022/01/27 02:00:47;;;;;;;7.00;3.90;;;;;;;20.06;46.42;101193.56;20437473;28;98468;-66
2022/01/27 02:22:17;;;;;;;5.35;4.10;;;;;;;20.01;46.37;101162.28;20458360;28;101679;-66
2022/01/27 03:05:08;;;;;;;3.83;3.42;;;;;;;19.99;46.14;101128.22;20431917;28;99611;-66
2022/01/27 03:26:07;;;;;;;3.92;3.17;;;;;;;19.97;45.82;101145.84;20425826;28;99411;-67
2022/01/27 03:36:07;;;;;;;4.40;3.58;;;;;;;19.96;45.88;101149.41;20424094;28;100188;-67
2022/01/27 05:14:21;;;;;;;5.57;3.08;;;;;;;20.03;46.76;101118.38;20452862;28;99191;-67
2022/01/27 05:24:22;;;;;;;5.55;3.13;;;;;;;20.11;47.32;101126.59;20407458;28;101274;-66
2022/01/27 05:34:30;;;;;;;3.58;2.67;;;;;;;20.28;47.87;101114.22;20425387;28;100009;-67
2022/01/27 05:55:56;;;;;;;5.60;3.08;;;;;;;20.43;46.77;101094.00;20445547;28;97949;-66
2022/01/27 06:06:07;;;;;;;9.00;4.30;;;;;;;20.51;47.39;101097.00;20377080;28;98812;-67
2022/01/27 06:16:38;;;;;;;14.05;5.63;;;;;;;20.36;41.81;101080.41;20428293;28;98708;-67
2022/01/27 06:37:36;;;;;;;11.65;4.78;;;;;;;20.49;44.37;101096.22;20363401;28;103462;-67
2022/01/27 06:47:38;;;;;;;12.07;5.28;;;;;;;20.58;44.81;101129.00;20431199;28;98056;-66
2022/01/27 07:09:30;;;;;;;10.65;5.13;;;;;;;20.60;43.11;101122.72;20438787;28;101671;-66
2022/01/27 07:30:50;;;;;;;7.97;4.05;;;;;;;20.73;44.39;101100.91;20435242;28;100746;-70
2022/01/27 07:40:51;;;;;;;10.60;4.20;;;;;;;20.78;45.02;101094.41;20460635;28;98254;-70
2022/01/27 07:50:51;;;;;;;7.47;4.43;;;;;;;20.83;44.46;101094.09;20462075;28;97801;-68
2022/01/27 08:12:15;;;;;;;10.13;4.15;;;;;;;20.92;44.32;101090.03;20457438;28;102273;-67
2022/01/27 08:22:46;;;;;;;6.10;4.20;;;;;;;20.95;44.13;101092.47;20317372;28;99357;-69
2022/01/27 08:33:43;;;;;;;7.38;4.82;;;;;;;20.99;43.94;101093.13;20445227;28;97990;-69
2022/01/27 08:44:20;;;;;;;9.05;5.38;;;;;;;21.02;43.96;101088.50;20450596;28;101699;-68
2022/01/27 08:54:20;;;;;;;9.73;6.45;;;;;;;21.04;43.84;101073.44;20406622;28;103009;-68
2022/01/27 09:04:21;;;;;;;11.32;6.43;;;;;;;21.11;44.23;101063.34;20419744;28;100862;-71
2022/01/27 09:14:22;;;;;;;10.55;7.05;;;;;;;21.14;44.54;101086.00;20416255;28;99382;-69
2022/01/27 09:24:28;;;;;;;12.88;8.05;;;;;;;21.13;43.36;101079.91;20434925;28;99500;-69
2022/01/27 09:34:30;;;;;;;9.88;7.63;;;;;;;21.11;43.29;101093.13;20419044;28;99726;-69
2022/01/27 09:44:32;;;;;;;19.58;12.95;;;;;;;21.10;43.57;101077.44;20384229;28;100838;-68
2022/01/27 09:54:34;;;;;;;19.93;11.20;;;;;;;21.10;44.23;101087.97;20418713;28;104858;-70
2022/01/27 10:26:41;;;;;;;17.65;12.05;;;;;;;21.15;43.57;101038.47;20133963;28;102691;-70
2022/01/27 10:36:43;;;;;;;;;;;;;;;21.23;43.84;101009.84;20172646;28;102277;-74
2022/01/27 10:47:13;;;;;;;18.05;12.60;;;;;;;21.29;43.46;101000.69;20317686;28;102539;-72
2022/01/27 10:57:13;;;;;;;15.57;11.68;;;;;;;21.35;42.99;100960.75;20356854;28;102845;-71
2022/01/27 11:07:24;;;;;;;15.95;12.07;;;;;;;21.41;42.73;100960.34;20285685;28;100250;-72
2022/01/27 11:17:29;;;;;;;15.35;11.52;;;;;;;21.54;43.60;100960.31;20338933;28;99681;-70
2022/01/27 11:38:46;;;;;;;13.82;10.00;;;;;;;21.36;40.53;100925.56;20441062;28;98125;-67
2022/01/27 11:48:59;;;;;;;12.07;8.65;;;;;;;21.62;42.32;100904.47;20416487;28;101351;-67
2022/01/27 11:59:08;;;;;;;14.48;8.50;;;;;;;21.79;43.38;100908.53;20380782;28;98563;-68
2022/01/27 12:09:22;;;;;;;10.43;8.30;;;;;;;21.92;43.87;100897.94;20354131;28;101661;-68
2022/01/27 12:19:22;;;;;;;9.85;7.72;;;;;;;22.02;43.59;100888.41;20434242;28;97586;-69
2022/01/27 12:29:28;;;;;;;9.20;7.13;;;;;;;22.12;43.68;100877.16;20429992;28;101825;-70
2022/01/27 12:39:32;;;;;;;11.93;7.47;;;;;;;22.17;43.22;100848.69;20427741;28;100948;-72
2022/01/27 12:49:38;;;;;;;11.60;7.30;;;;;;;22.23;42.56;100830.59;20428786;28;102419;-69
2022/01/27 12:59:42;;;;;;;9.68;6.45;;;;;;;22.24;43.06;100820.91;20375433;28;100689;-69
2022/01/27 13:09:43;;;;;;;8.30;6.20;;;;;;;22.27;43.24;100790.81;20022607;28;99769;-69
2022/01/27 13:20:09;;;;;;;12.85;6.75;;;;;;;22.30;43.23;100770.31;20103247;28;100224;-67
2022/01/27 13:41:38;;;;;;;12.48;7.70;;;;;;;22.49;48.98;100756.56;20360859;28;104332;-68
2022/01/27 14:02:43;;;;;;;9.52;6.00;;;;;;;22.44;47.66;100737.59;20428750;28;102514;-68
2022/01/27 14:12:48;;;;;;;9.73;6.07;;;;;;;22.39;46.98;100723.94;20462729;28;102034;-68
2022/01/27 14:23:13;;;;;;;8.15;5.57;;;;;;;22.33;47.50;100716.47;20430148;28;99013;-68
2022/01/27 14:33:15;;;;;;;10.40;5.70;;;;;;;22.23;46.62;100701.34;20429956;28;101981;-67
2022/01/27 14:43:15;;;;;;;9.95;5.60;;;;;;;22.15;45.71;100690.53;20417326;28;102595;-69
2022/01/27 14:53:15;;;;;;;10.60;5.63;;;;;;;22.06;45.05;100683.34;20351774;28;99296;-68
2022/01/27 15:03:16;;;;;;;11.50;6.10;;;;;;;21.96;45.42;100677.94;20375071;28;101782;-66
2022/01/27 15:13:20;;;;;;;8.48;5.30;;;;;;;21.90;45.54;100657.31;20392163;28;101866;-67
2022/01/27 15:23:21;;;;;;;14.82;6.07;;;;;;;21.85;46.06;100654.16;20387726;28;105036;-67
2022/01/27 15:33:23;;;;;;;9.18;4.90;;;;;;;21.81;46.91;100648.28;20386704;28;103794;-68
2022/01/27 15:43:47;;;;;;;13.20;6.47;;;;;;;21.74;45.64;100637.38;20338795;28;102764;-67
2022/01/27 15:53:47;;;;;;;18.63;6.18;;;;;;;21.68;45.43;100637.00;20395499;28;103123;-68
2022/01/27 16:03:53;;;;;;;13.35;5.68;;;;;;;21.64;45.59;100628.50;20327964;28;101013;-68
2022/01/27 16:13:54;;;;;;;9.13;5.30;;;;;;;21.64;45.10;100619.75;20330821;28;101637;-69
2022/01/27 16:23:55;;;;;;;10.63;4.43;;;;;;;21.62;45.19;100614.59;20371987;28;99514;-69
2022/01/27 16:34:04;;;;;;;13.60;5.03;;;;;;;21.58;45.01;100600.81;20427135;28;102984;-70
2022/01/27 16:44:06;;;;;;;14.05;4.93;;;;;;;21.56;44.77;100589.53;20424283;28;103128;-69
2022/01/27 16:54:09;;;;;;;12.05;4.80;;;;;;;21.54;44.83;100595.84;20440138;28;100963;-70
2022/01/27 17:04:09;;;;;;;9.60;5.15;;;;;;;21.46;44.59;100583.25;20400400;28;102822;-69
2022/01/27 17:14:54;;;;;;;15.32;4.90;;;;;;;21.36;44.50;100572.59;20407456;28;101295;-68
2022/01/27 17:24:57;;;;;;;17.42;5.47;;;;;;;21.34;45.25;100563.13;20421666;28;101868;-69
2022/01/27 17:35:12;;;;;;;19.50;8.10;;;;;;;21.39;46.42;100559.16;20439639;28;103083;-68
2022/01/27 17:45:12;;;;;;;33.60;12.15;;;;;;;21.41;45.93;100562.53;20412012;28;99043;-69
2022/01/27 17:55:14;;;;;;;35.80;21.27;;;;;;;21.45;46.96;100568.41;20431896;28;97646;-68
2022/01/27 18:05:36;;;;;;;37.03;22.15;;;;;;;21.46;46.88;100566.59;20424299;28;101124;-68
2022/01/27 18:15:37;;;;;;;37.23;21.27;;;;;;;21.41;46.72;100565.16;20431192;28;99228;-68
2022/01/27 18:25:39;;;;;;;29.38;18.70;;;;;;;21.41;46.43;100549.38;20391556;28;101500;-68
2022/01/27 18:35:42;;;;;;;36.87;18.03;;;;;;;21.47;46.61;100531.41;20353693;28;102467;-69
2022/01/27 18:45:44;;;;;;;27.88;16.50;;;;;;;21.53;48.88;100525.66;20390549;28;102317;-70
2022/01/27 18:55:52;;;;;;;34.63;18.90;;;;;;;21.59;50.74;100525.22;20471733;28;101909;-68
2022/01/27 19:06:14;;;;;;;39.53;20.73;;;;;;;21.64;51.56;100531.00;20420998;28;106573;-68
2022/01/27 19:16:14;;;;;;;34.60;19.43;;;;;;;21.67;49.81;100522.00;20392903;28;98881;-68
2022/01/27 19:26:23;;;;;;;56.28;29.40;;;;;;;21.70;50.88;100521.75;20402736;28;101356;-69
2022/01/27 19:36:29;;;;;;;40.47;20.02;;;;;;;21.33;43.00;100516.66;20436127;28;102527;-70
2022/01/27 19:46:43;;;;;;;30.85;17.70;;;;;;;21.47;46.23;100505.06;20409360;28;102818;-71
2022/01/27 19:56:43;;;;;;;30.00;16.08;;;;;;;21.49;45.44;100501.34;20395534;28;98796;-70
2022/01/27 20:07:04;;;;;;;26.83;13.85;;;;;;;21.53;46.75;100507.22;20452423;28;100807;-69
2022/01/27 20:17:06;;;;;;;22.55;12.95;;;;;;;21.54;47.41;100504.47;20431247;28;101421;-69
2022/01/27 20:27:14;;;;;;;24.27;12.30;;;;;;;21.54;45.77;100498.38;20435481;28;101689;-67
2022/01/27 20:37:34;;;;;;;24.27;11.57;;;;;;;21.53;46.73;100494.91;20428048;28;103246;-68
2022/01/27 20:47:38;;;;;;;21.52;11.25;;;;;;;21.51;46.88;100485.44;20422687;28;104502;-68
2022/01/27 20:57:45;;;;;;;16.33;10.27;;;;;;;21.49;46.59;100480.28;20391269;28;98829;-68
2022/01/27 21:07:45;;;;;;;22.40;10.05;;;;;;;21.47;46.78;100473.44;20391798;28;100431;-69
2022/01/27 21:17:46;;;;;;;18.17;8.75;;;;;;;21.42;46.79;100484.34;20419969;28;101322;-69
2022/01/27 21:27:49;;;;;;;14.95;8.98;;;;;;;21.40;46.79;100491.53;20433198;28;101964;-68
2022/01/27 21:37:59;;;;;;;17.30;8.97;;;;;;;21.33;47.11;100482.41;20399977;28;101191;-69
2022/01/27 21:48:06;;;;;;;14.07;8.50;;;;;;;21.31;47.44;100502.75;20421206;28;100204;-69
2022/01/27 21:58:13;;;;;;;13.00;8.32;;;;;;;21.25;47.06;100480.34;20405978;28;98621;-68
2022/01/27 22:08:14;;;;;;;11.27;7.40;;;;;;;21.23;46.97;100463.84;20451128;28;98507;-68
2022/01/27 22:18:19;;;;;;;10.35;7.80;;;;;;;21.16;47.30;100470.53;20408225;28;97457;-69
2022/01/27 22:28:21;;;;;;;11.50;7.18;;;;;;;21.08;47.04;100445.63;20359454;28;98566;-68
2022/01/27 22:38:22;;;;;;;13.43;7.05;;;;;;;21.02;46.88;100440.84;20360014;28;99729;-69
2022/01/27 22:48:25;;;;;;;10.20;6.32;;;;;;;21.08;47.11;100453.53;20371770;28;99763;-68
2022/01/27 22:58:35;;;;;;;8.93;6.03;;;;;;;21.05;47.00;100451.13;20432017;28;101168;-68
2022/01/27 23:08:45;;;;;;;8.60;5.55;;;;;;;21.03;47.18;100457.44;20403138;28;98738;-69
2022/01/27 23:19:10;;;;;;;8.10;5.70;;;;;;;21.00;46.65;100462.97;20361147;28;102330;-69
2022/01/27 23:29:13;;;;;;;7.18;5.35;;;;;;;20.91;47.12;100469.75;20357584;28;99026;-69
